Time;durP1;ratioP1;P1;durP2;ratioP2;P2;SDS_P1;SDS_P2;PMS_P1;PMS_P2;Temp;Humidity;BMP_temperature;BMP_pressure;BME280_temperature;BME280_humidity;BME280_pressure;Samples;Min_cycle;Max_cycle;Signal;HPM_P1;HPM_P2
2023/05/11 00:01:10;;;;;;;17.97;15.97;;;;;;;12.28;100.00;101399.47;5103085;27;19915;-70
2023/05/11 00:03:35;;;;;;;;;;;;;;;12.40;100.00;101404.69;5093066;28;20039;-70
2023/05/11 00:06:01;;;;;;;18.90;15.57;;;;;;;12.23;100.00;101390.19;5093592;28;19912;-70
2023/05/11 00:08:26;;;;;;;;;;;;;;;12.37;100.00;101394.28;5092592;28;20027;-69
2023/05/11 00:10:51;;;;;;;18.27;16.48;;;;;;;12.26;100.00;101387.25;5093416;28;19908;-69
2023/05/11 00:13:17;;;;;;;;;;;;;;;12.37;100.00;101388.94;5110628;27;20035;-69
2023/05/11 00:15:42;;;;;;;19.95;16.35;;;;;;;12.28;100.00;101387.94;5095720;28;19912;-70
2023/05/11 00:18:08;;;;;;;;;;;;;;;12.37;100.00;101389.75;5093532;28;20048;-69
2023/05/11 00:20:33;;;;;;;19.98;16.15;;;;;;;12.26;100.00;101380.06;5091826;28;19907;-70
2023/05/11 00:22:58;;;;;;;;;;;;;;;12.38;100.00;101385.28;5097269;28;20011;-70
2023/05/11 00:25:24;;;;;;;18.08;16.17;;;;;;;12.29;100.00;101381.63;5097882;27;19911;-70
2023/05/11 00:27:49;;;;;;;;;;;;;;;12.38;100.00;101383.44;5092997;28;20016;-70
2023/05/11 00:30:14;;;;;;;19.85;17.83;;;;;;;12.29;100.00;101385.13;5102077;27;20014;-70
2023/05/11 00:32:40;;;;;;;;;;;;;;;12.39;100.00;101389.63;5091966;28;20055;-70
2023/05/11 00:35:06;;;;;;;20.60;18.40;;;;;;;12.26;100.00;101392.59;5092865;28;20505;-70
2023/05/11 00:37:31;;;;;;;;;;;;;;;12.38;100.00;101396.81;5096525;28;20038;-70
2023/05/11 00:39:57;;;;;;;19.33;17.33;;;;;;;12.26;100.00;101393.44;5094471;28;19922;-70
2023/05/11 00:42:22;;;;;;;;;;;;;;;12.36;100.00;101396.13;5093232;28;20020;-70
2023/05/11 00:44:47;;;;;;;22.57;18.33;;;;;;;12.25;100.00;101394.44;5098261;27;19908;-70
2023/05/11 00:47:12;;;;;;;;;;;;;;;12.36;100.00;101397.94;5097638;28;20306;-70
2023/05/11 00:49:38;;;;;;;20.27;18.08;;;;;;;12.22;100.00;101396.50;5091479;28;20010;-68
2023/05/11 00:52:04;;;;;;;;;;;;;;;12.34;100.00;101406.13;5095102;28;20034;-70
2023/05/11 00:54:30;;;;;;;21.67;19.33;;;;;;;12.24;100.00;101406.09;5091435;28;19918;-69
2023/05/11 00:56:55;;;;;;;23.33;19.90;;;;;;;12.21;100.00;101401.03;5094675;28;20437;-70
2023/05/11 00:59:21;;;;;;;;;;;;;;;12.32;100.00;101402.72;5091602;28;20024;-69
2023/05/11 01:01:46;;;;;;;28.20;20.13;;;;;;;12.21;100.00;101413.56;5091287;28;19970;-69
2023/05/11 01:04:12;;;;;;;;;;;;;;;12.30;100.00;101410.88;5099138;28;20502;-69
2023/05/11 01:06:50;;;;;;;26.25;21.13;;;;;;;12.24;100.00;101408.78;5091588;28;19912;-69
2023/05/11 01:09:49;;;;;;;23.58;20.55;;;;;;;12.24;100.00;101406.09;5091186;28;20028;-70
2023/05/11 01:12:38;;;;;;;26.75;21.33;;;;;;;12.21;100.00;101406.38;5092993;28;20089;-69
2023/05/11 01:15:11;;;;;;;24.08;20.65;;;;;;;12.21;100.00;101408.22;5091990;28;20065;-70
2023/05/11 01:17:56;;;;;;;29.15;23.92;;;;;;;12.22;100.00;101409.88;5091653;28;20051;-69
2023/05/11 01:20:26;;;;;;;29.40;23.10;;;;;;;12.22;100.00;101405.41;5097027;28;20054;-69
2023/05/11 01:23:09;;;;;;;26.20;21.88;;;;;;;12.21;100.00;101409.03;5094384;28;20379;-69
2023/05/11 01:25:52;;;;;;;26.38;22.38;;;;;;;12.21;100.00;101406.38;5094023;28;20032;-69
2023/05/11 01:28:54;;;;;;;29.52;22.35;;;;;;;12.24;100.00;101402.59;5090934;28;20081;-70
2023/05/11 01:31:20;;;;;;;31.73;23.02;;;;;;;12.20;100.00;101411.84;5091143;28;20034;-70
2023/05/11 01:34:07;;;;;;;;;;;;;;;12.34;100.00;101414.16;5091547;28;20020;-70
2023/05/11 01:36:38;;;;;;;30.02;23.08;;;;;;;12.21;100.00;101408.22;5095579;28;19915;-70
2023/05/11 01:39:07;;;;;;;32.75;24.55;;;;;;;12.20;100.00;101410.03;5098088;28;20054;-70
2023/05/11 01:41:35;;;;;;;38.05;25.02;;;;;;;12.16;100.00;101416.63;5090895;28;20027;-70
2023/05/11 01:44:10;;;;;;;32.65;24.27;;;;;;;12.16;100.00;101408.63;5094590;28;20046;-71
2023/05/11 01:46:37;;;;;;;31.92;24.08;;;;;;;12.20;100.00;101417.19;5091105;28;20020;-70
2023/05/11 01:49:08;;;;;;;35.40;27.08;;;;;;;12.16;100.00;101419.31;5089019;28;20430;-70
2023/05/11 01:51:36;;;;;;;31.38;25.15;;;;;;;12.11;100.00;101408.19;5091147;28;20028;-70
2023/05/11 01:54:06;;;;;;;31.73;25.25;;;;;;;12.14;100.00;101415.09;5099396;28;20399;-70
2023/05/11 01:56:34;;;;;;;35.20;24.90;;;;;;;12.13;100.00;101410.72;5090705;28;20540;-70
2023/05/11 01:59:00;;;;;;;33.28;25.13;;;;;;;12.12;100.00;101407.22;5093151;28;20016;-70
2023/05/11 02:01:27;;;;;;;32.50;25.85;;;;;;;12.11;100.00;101408.19;5094752;28;20020;-70
2023/05/11 02:03:54;;;;;;;31.70;25.67;;;;;;;12.14;100.00;101413.25;5097783;28;20115;-71
2023/05/11 02:06:23;;;;;;;36.78;27.02;;;;;;;12.15;100.00;101412.28;5094419;28;20077;-70
2023/05/11 02:08:49;;;;;;;36.53;27.42;;;;;;;12.14;100.00;101407.06;5093499;28;20031;-70
2023/05/11 02:11:17;;;;;;;33.92;25.63;;;;;;;12.16;100.00;101410.44;5100539;28;20405;-70
2023/05/11 02:13:45;;;;;;;35.25;26.10;;;;;;;12.16;100.00;101405.09;5094311;28;20477;-70
2023/05/11 02:16:11;;;;;;;34.38;26.83;;;;;;;12.14;100.00;101404.41;5093873;28;20035;-70
2023/05/11 02:18:39;;;;;;;;;;;;;;;12.28;100.00;101395.97;5093805;28;20024;-70
2023/05/11 02:21:08;;;;;;;31.73;25.85;;;;;;;12.15;100.00;101392.69;5094286;28;20281;-70
2023/05/11 02:23:33;;;;;;;36.78;27.23;;;;;;;12.13;100.00;101395.50;5097552;28;20052;-70
2023/05/11 02:25:59;;;;;;;;;;;;;;;12.26;100.00;101397.94;5094810;28;20063;-70
2023/05/11 02:28:24;;;;;;;33.83;27.20;;;;;;;12.14;100.00;101399.06;5094145;28;20381;-70
2023/05/11 02:30:53;;;;;;;;;;;;;;;12.24;100.00;101395.41;5105015;28;20101;-70
2023/05/11 02:33:27;;;;;;;39.13;28.98;;;;;;;12.14;100.00;101394.53;5095073;28;19916;-70
2023/05/11 02:35:54;;;;;;;39.67;29.55;;;;;;;12.09;100.00;101399.47;5094675;28;20032;-70
2023/05/11 02:38:27;;;;;;;36.63;29.02;;;;;;;12.06;100.00;101403.28;5093666;28;20028;-70
2023/05/11 02:40:57;;;;;;;38.33;29.60;;;;;;;12.05;100.00;101406.06;5094217;28;20389;-69
2023/05/11 02:43:25;;;;;;;41.13;31.25;;;;;;;12.01;100.00;101402.84;5104314;28;20342;-70
2023/05/11 02:45:56;;;;;;;40.60;30.65;;;;;;;11.96;100.00;101399.72;5102351;28;20035;-69
2023/05/11 02:48:26;;;;;;;37.20;29.98;;;;;;;12.00;100.00;101406.47;5099740;28;20019;-69
2023/05/11 02:50:55;;;;;;;38.97;29.85;;;;;;;11.97;100.00;101404.06;5093654;28;20127;-69
2023/05/11 02:53:22;;;;;;;38.50;30.13;;;;;;;11.98;100.00;101402.28;5092928;28;20094;-69
2023/05/11 02:55:50;;;;;;;38.38;30.70;;;;;;;11.99;100.00;101395.91;5093690;28;20039;-70
2023/05/11 02:58:16;;;;;;;39.17;30.48;;;;;;;11.97;100.00;101396.06;5092642;28;20031;-69
2023/05/11 03:00:42;;;;;;;39.88;30.05;;;;;;;11.96;100.00;101399.72;5092916;28;20107;-70
2023/05/11 03:03:07;;;;;;;;;;;;;;;12.10;100.00;101398.50;5100101;28;20110;-69
2023/05/11 03:05:33;;;;;;;39.10;30.23;;;;;;;11.94;100.00;101407.03;5093027;28;19930;-69
2023/05/11 03:07:58;;;;;;;;;;;;;;;12.07;100.00;101401.44;5093258;28;20274;-69
2023/05/11 03:10:28;;;;;;;36.33;29.58;;;;;;;11.89;100.00;101407.41;5091818;28;20372;-69
2023/05/11 03:12:54;;;;;;;40.42;31.55;;;;;;;11.81;100.00;101406.41;5092997;28;20496;-69
2023/05/11 03:15:20;;;;;;;41.53;31.50;;;;;;;11.77;100.00;101410.34;5092426;28;20031;-70
2023/05/11 03:17:47;;;;;;;36.80;30.35;;;;;;;11.73;100.00;101415.97;5103997;27;20435;-70
2023/05/11 03:20:13;;;;;;;41.88;31.80;;;;;;;11.71;100.00;101412.56;5092775;28;20035;-69
2023/05/11 03:22:39;;;;;;;40.13;31.95;;;;;;;11.68;100.00;101422.69;5095063;28;20016;-69
2023/05/11 03:25:06;;;;;;;;;;;;;;;11.85;100.00;101419.38;5094362;28;20560;-69
2023/05/11 03:27:32;;;;;;;36.05;29.95;;;;;;;11.65;100.00;101417.63;5092092;28;19916;-70
2023/05/11 03:30:00;;;;;;;37.10;30.63;;;;;;;11.65;100.00;101415.78;5104098;27;20032;-69
2023/05/11 03:32:26;;;;;;;43.28;32.03;;;;;;;11.59;100.00;101415.47;5104509;27;20384;-69
2023/05/11 03:34:51;;;;;;;;;;;;;;;11.77;100.00;101421.03;5095723;28;20024;-69
2023/05/11 03:37:18;;;;;;;38.20;30.88;;;;;;;11.60;100.00;101411.81;5096078;28;19927;-70
2023/05/11 03:39:46;;;;;;;38.50;31.42;;;;;;;11.56;100.00;101416.59;5095705;28;20358;-70
2023/05/11 03:42:14;;;;;;;39.40;31.27;;;;;;;11.54;100.00;101413.22;5096806;28;20032;-70
2023/05/11 03:44:43;;;;;;;39.08;29.88;;;;;;;11.51;100.00;101410.81;5095889;28;20055;-69
2023/05/11 03:47:09;;;;;;;39.92;30.45;;;;;;;11.44;100.00;101404.31;5098240;28;20027;-70
2023/05/11 03:49:36;;;;;;;39.95;31.30;;;;;;;11.41;100.00;101404.59;5091279;28;20077;-70
2023/05/11 03:52:03;;;;;;;38.92;29.92;;;;;;;11.39;100.00;101404.72;5092272;28;20035;-70
2023/05/11 03:54:28;;;;;;;39.03;31.23;;;;;;;11.40;100.00;101408.25;5097405;28;20028;-69
2023/05/11 03:56:53;;;;;;;;;;;;;;;11.56;100.00;101410.41;5092508;28;20031;-70
2023/05/11 03:59:19;;;;;;;42.85;31.67;;;;;;;11.42;100.00;101404.44;5092059;27;20351;-69
2023/05/11 04:01:45;;;;;;;;;;;;;;;11.53;100.00;101404.38;5097850;27;20500;-70
2023/05/11 04:04:10;;;;;;;46.97;34.08;;;;;;;11.43;100.00;101408.81;5091626;28;20337;-70
2023/05/11 04:06:36;;;;;;;;;;;;;;;11.56;100.00;101410.41;5092252;28;20488;-70
2023/05/11 04:09:01;;;;;;;48.88;34.70;;;;;;;11.43;100.00;101406.16;5091400;28;19915;-70
2023/05/11 04:11:28;;;;;;;;;;;;;;;11.56;100.00;101407.75;5091832;28;20043;-69
2023/05/11 04:13:54;;;;;;;57.83;38.63;;;;;;;11.44;100.00;101405.16;5095223;27;20311;-70
2023/05/11 04:16:19;;;;;;;;;;;;;;;11.57;100.00;101402.28;5089820;28;20020;-69
2023/05/11 04:18:44;;;;;;;57.80;37.77;;;;;;;11.46;100.00;101405.88;5090966;28;19919;-70
2023/05/11 04:21:10;;;;;;;;;;;;;;;11.59;100.00;101405.66;5091524;28;20281;-70
2023/05/11 04:23:35;;;;;;;56.47;39.63;;;;;;;11.47;100.00;101404.91;5094744;28;19912;-70
2023/05/11 04:26:01;;;;;;;;;;;;;;;11.62;100.00;101413.38;5090303;28;20485;-70
2023/05/11 04:28:27;;;;;;;59.33;39.28;;;;;;;11.49;100.00;101407.44;5093952;28;19915;-70
2023/05/11 04:30:56;;;;;;;;;;;;;;;11.64;100.00;101406.09;5091455;28;20374;-70
2023/05/11 04:33:21;;;;;;;56.60;39.20;;;;;;;11.51;100.00;101411.66;5092602;28;19945;-70
2023/05/11 04:35:50;;;;;;;;;;;;;;;11.67;100.00;101415.66;5094587;28;20468;-69
2023/05/11 04:38:16;;;;;;;71.32;47.58;;;;;;;11.52;100.00;101410.69;5098838;28;19920;-70
2023/05/11 04:40:41;;;;;;;;;;;;;;;11.70;100.00;101416.22;5090729;28;20024;-70
2023/05/11 04:43:07;;;;;;;58.25;40.92;;;;;;;11.61;100.00;101418.88;5100136;27;19923;-69
2023/05/11 04:45:32;;;;;;;;;;;;;;;11.73;100.00;101421.31;5090617;28;20024;-69
2023/05/11 04:47:57;;;;;;;58.33;39.47;;;;;;;11.58;100.00;101416.47;5090575;28;19911;-69
2023/05/11 04:50:22;;;;;;;;;;;;;;;11.78;100.00;101422.72;5090904;28;20036;-70
2023/05/11 04:52:48;;;;;;;61.25;40.30;;;;;;;11.66;100.00;101425.50;5090930;28;19912;-70
2023/05/11 04:55:13;;;;;;;;;;;;;;;11.84;100.00;101428.38;5090886;28;20161;-70
2023/05/11 04:57:38;;;;;;;61.73;39.23;;;;;;;11.72;100.00;101432.97;5093081;28;20022;-71
2023/05/11 05:00:05;;;;;;;;;;;;;;;11.90;100.00;101435.88;5090547;28;20289;-70
2023/05/11 05:02:31;;;;;;;59.85;42.33;;;;;;;11.83;100.00;101436.50;5094825;28;19912;-70
2023/05/11 05:04:56;;;;;;;;;;;;;;;12.00;100.00;101432.38;5090363;28;20073;-70
2023/05/11 05:07:21;;;;;;;56.87;38.87;;;;;;;11.93;100.00;101442.78;5089519;28;19923;-70
2023/05/11 05:09:46;;;;;;;;;;;;;;;12.07;100.00;101438.88;5091347;28;20286;-69
2023/05/11 05:12:12;;;;;;;54.30;37.63;;;;;;;11.99;100.00;101444.03;5089634;28;19916;-69
2023/05/11 05:14:37;;;;;;;;;;;;;;;12.11;100.00;101442.94;5090678;28;20297;-70
2023/05/11 05:17:02;;;;;;;60.03;38.60;;;;;;;12.04;100.00;101445.34;5090056;28;19911;-69
2023/05/11 05:19:27;;;;;;;;;;;;;;;12.18;100.00;101451.25;5097751;28;20370;-70
2023/05/11 05:21:52;;;;;;;62.93;39.27;;;;;;;12.11;100.00;101456.31;5090161;28;19908;-69
2023/05/11 05:24:18;;;;;;;;;;;;;;;12.23;100.00;101457.88;5093746;28;20339;-70
2023/05/11 05:26:43;;;;;;;52.63;36.07;;;;;;;12.12;100.00;101460.69;5089806;28;20003;-70
2023/05/11 05:29:08;;;;;;;;;;;;;;;12.29;100.00;101454.66;5089707;28;20020;-69
2023/05/11 05:31:33;;;;;;;49.35;35.67;;;;;;;12.14;100.00;101461.41;5089581;28;20274;-69
2023/05/11 05:33:59;;;;;;;;;;;;;;;12.36;100.00;101454.97;5092893;28;20032;-69
2023/05/11 05:36:24;;;;;;;48.27;36.13;;;;;;;12.36;100.00;101459.44;5093587;28;20010;-70
2023/05/11 05:38:49;;;;;;;;;;;;;;;12.55;100.00;101458.63;5100489;27;20039;-70
2023/05/11 05:41:15;;;;;;;52.40;37.35;;;;;;;12.59;100.00;101460.91;5093122;28;19911;-70
2023/05/11 05:43:40;;;;;;;;;;;;;;;12.75;100.00;101462.16;5098517;28;20035;-69
2023/05/11 05:46:06;;;;;;;53.20;36.95;;;;;;;12.76;100.00;101461.16;5103666;28;19908;-69
2023/05/11 05:48:31;;;;;;;;;;;;;;;12.93;100.00;101470.31;5103902;28;20069;-70
2023/05/11 05:50:56;;;;;;;51.72;35.20;;;;;;;12.82;100.00;101468.63;5101543;28;19912;-70
2023/05/11 05:53:21;;;;;;;;;;;;;;;13.04;100.00;101468.34;5098551;28;20102;-70
2023/05/11 05:55:47;;;;;;;54.20;35.73;;;;;;;12.88;100.00;101468.06;5101773;28;20527;-70
2023/05/11 05:58:12;;;;;;;;;;;;;;;13.09;100.00;101467.88;5103516;28;20794;-69
2023/05/11 06:00:37;;;;;;;52.23;33.93;;;;;;;13.00;100.00;101479.47;5101993;28;20420;-70
2023/05/11 06:03:02;;;;;;;50.97;35.83;;;;;;;12.95;100.00;101479.03;5102862;28;20070;-69
2023/05/11 06:05:28;;;;;;;57.17;36.80;;;;;;;12.96;100.00;101473.56;5103662;28;20517;-68
2023/05/11 06:07:53;;;;;;;49.05;35.65;;;;;;;13.05;100.00;101477.22;5101038;28;20050;-70
2023/05/11 06:10:18;;;;;;;;;;;;;;;13.29;100.00;101478.56;5101630;28;20499;-70
2023/05/11 06:12:43;;;;;;;55.17;36.33;;;;;;;13.22;100.00;101481.84;5100631;28;19912;-69
2023/05/11 06:15:09;;;;;;;;;;;;;;;13.43;100.00;101476.31;5102662;28;20301;-70
2023/05/11 06:17:34;;;;;;;52.90;36.13;;;;;;;13.35;100.00;101475.34;5102030;28;19990;-70
2023/05/11 06:19:59;;;;;;;;;;;;;;;13.56;100.00;101481.34;5102284;27;20482;-70
2023/05/11 06:22:24;;;;;;;56.43;36.97;;;;;;;13.40;100.00;101479.28;5106130;27;19918;-70
2023/05/11 06:24:50;;;;;;;59.15;39.95;;;;;;;13.36;100.00;101480.56;5100179;28;20027;-70
2023/05/11 06:27:15;;;;;;;58.17;38.35;;;;;;;13.46;100.00;101487.72;5102209;28;20027;-70
2023/05/11 06:29:41;;;;;;;;;;;;;;;13.63;100.00;101488.81;5099958;28;20030;-70
2023/05/11 06:32:06;;;;;;;54.67;37.78;;;;;;;13.40;100.00;101481.94;5103264;28;20336;-70
2023/05/11 06:34:32;;;;;;;52.40;38.70;;;;;;;13.44;100.00;101479.81;5101972;28;20030;-70
2023/05/11 06:37:00;;;;;;;;;;;;;;;13.60;100.00;101493.47;5100727;28;20047;-70
2023/05/11 06:39:25;;;;;;;52.83;37.45;;;;;;;13.34;100.00;101479.88;5100124;28;19923;-70
2023/05/11 06:41:51;;;;;;;;;;;;;;;13.57;100.00;101491.09;5100353;28;20024;-70
2023/05/11 06:44:16;;;;;;;56.42;38.28;;;;;;;13.37;100.00;101489.44;5101223;27;19911;-70
2023/05/11 06:46:41;;;;;;;;;;;;;;;13.54;100.00;101493.22;5100472;28;20020;-70
2023/05/11 06:49:07;;;;;;;52.57;37.97;;;;;;;13.27;100.00;101500.16;5105232;27;19908;-70
2023/05/11 06:51:32;;;;;;;;;;;;;;;13.52;100.00;101490.66;5101057;28;20316;-70
2023/05/11 06:53:58;;;;;;;54.58;37.17;;;;;;;13.35;100.00;101494.94;5095690;28;19961;-70
2023/05/11 06:56:23;;;;;;;;;;;;;;;13.54;100.00;101496.72;5100970;28;20071;-70
2023/05/11 06:58:48;;;;;;;56.30;36.33;;;;;;;13.34;100.00;101500.44;5098970;27;19918;-69
2023/05/11 07:01:14;;;;;;;56.33;37.65;;;;;;;13.31;100.00;101506.94;5100737;28;20035;-70
2023/05/11 07:03:39;;;;;;;58.05;38.80;;;;;;;13.29;100.00;101506.22;5101482;27;20415;-70
2023/05/11 07:06:04;;;;;;;;;;;;;;;13.51;100.00;101505.06;5100976;28;20031;-70
2023/05/11 07:08:30;;;;;;;58.43;39.63;;;;;;;13.35;100.00;101499.47;5098035;28;19941;-70
2023/05/11 07:10:55;;;;;;;;;;;;;;;13.51;100.00;101506.88;5095811;28;20369;-70
2023/05/11 07:13:20;;;;;;;57.50;40.23;;;;;;;13.26;100.00;101502.97;5101272;28;19912;-70
2023/05/11 07:15:46;;;;;;;60.58;41.30;;;;;;;13.26;100.00;101511.03;5098415;28;20213;-70
2023/05/11 07:18:11;;;;;;;;;;;;;;;13.45;100.00;101510.13;5099519;28;20024;-70
2023/05/11 07:20:36;;;;;;;72.73;42.97;;;;;;;13.22;100.00;101508.63;5098724;28;19968;-70
2023/05/11 07:23:02;;;;;;;74.47;44.92;;;;;;;13.16;100.00;101511.03;5099073;28;20035;-70
2023/05/11 07:25:27;;;;;;;;;;;;;;;13.37;100.00;101503.66;5098569;27;20324;-70
2023/05/11 07:27:53;;;;;;;79.50;48.08;;;;;;;13.18;100.00;101517.06;5097929;28;20007;-70
2023/05/11 07:30:18;;;;;;;;;;;;;;;13.37;100.00;101505.50;5102015;27;20483;-70
2023/05/11 07:32:43;;;;;;;78.00;47.28;;;;;;;13.20;100.00;101517.78;5097909;27;19916;-70
2023/05/11 07:35:08;;;;;;;;;;;;;;;13.37;100.00;101516.22;5096589;28;20057;-70
2023/05/11 07:37:34;;;;;;;80.97;47.17;;;;;;;13.20;100.00;101513.28;5098649;28;19934;-71
2023/05/11 07:39:59;;;;;;;82.40;49.95;;;;;;;13.20;100.00;101515.09;5096296;28;20111;-70
2023/05/11 07:42:24;;;;;;;;;;;;;;;13.38;100.00;101521.44;5098575;28;20111;-70
2023/05/11 07:44:49;;;;;;;83.90;48.77;;;;;;;13.24;100.00;101520.03;5098096;27;19959;-70
2023/05/11 07:47:16;;;;;;;81.35;49.25;;;;;;;13.16;100.00;101516.38;5096665;28;20069;-70
2023/05/11 07:49:41;;;;;;;80.32;50.53;;;;;;;13.19;100.00;101524.97;5096873;28;20031;-70
2023/05/11 07:52:07;;;;;;;;;;;;;;;13.36;100.00;101518.06;5094685;28;20024;-70
2023/05/11 07:54:32;;;;;;;79.60;47.77;;;;;;;13.22;100.00;101529.22;5102659;28;20009;-70
2023/05/11 07:56:57;;;;;;;;;;;;;;;13.39;100.00;101533.88;5095519;28;20289;-70
2023/05/11 07:59:22;;;;;;;91.90;52.27;;;;;;;13.17;100.00;101526.94;5099295;27;20368;-70
2023/05/11 08:01:48;;;;;;;89.22;56.53;;;;;;;13.15;100.00;101523.56;5096347;28;20016;-70
2023/05/11 08:04:13;;;;;;;;;;;;;;;13.39;100.00;101533.88;5099413;28;20070;-70
2023/05/11 08:06:38;;;;;;;86.67;52.13;;;;;;;13.29;100.00;101534.81;5098833;28;20379;-71
2023/05/11 08:09:04;;;;;;;;;;;;;;;13.46;100.00;101533.28;5096929;28;20286;-70
2023/05/11 08:11:29;;;;;;;96.65;54.22;;;;;;;13.33;100.00;101530.91;5104476;28;20405;-70
2023/05/11 08:13:54;;;;;;;96.28;56.55;;;;;;;13.34;100.00;101537.94;5095603;28;20020;-70
2023/05/11 08:16:20;;;;;;;92.00;54.75;;;;;;;13.29;100.00;101543.72;5097784;28;20028;-70
2023/05/11 08:18:45;;;;;;;89.45;56.13;;;;;;;13.28;100.00;101536.66;5095516;28;20019;-70
2023/05/11 08:21:10;;;;;;;;;;;;;;;13.53;100.00;101535.22;5097892;28;20103;-70
2023/05/11 08:23:36;;;;;;;93.60;57.23;;;;;;;13.41;100.00;101536.38;5100446;28;19916;-70
2023/05/11 08:26:01;;;;;;;99.88;56.50;;;;;;;13.43;100.00;101542.47;5091113;28;20481;-70
2023/05/11 08:28:26;;;;;;;;;;;;;;;13.72;100.00;101542.38;5106780;27;20026;-70
2023/05/11 08:30:59;;;;;;;95.10;56.60;;;;;;;13.67;100.00;101536.59;5095382;28;19915;-70
2023/05/11 08:33:26;;;;;;;90.93;56.75;;;;;;;13.83;100.00;101538.66;5095009;28;20285;-70
2023/05/11 08:35:51;;;;;;;94.57;58.22;;;;;;;13.96;100.00;101528.47;5094700;28;20081;-70
2023/05/11 08:38:17;;;;;;;;;;;;;;;14.32;100.00;101533.94;5097555;28;20023;-70
2023/05/11 08:40:46;;;;;;;86.65;52.28;;;;;;;14.26;100.00;101537.22;5094139;28;19915;-70
2023/05/11 08:43:13;;;;;;;88.32;54.50;;;;;;;14.31;100.00;101529.56;5093452;28;20501;-70
2023/05/11 08:45:40;;;;;;;85.72;52.90;;;;;;;14.41;100.00;101531.31;5095647;27;20026;-70
2023/05/11 08:48:06;;;;;;;83.07;52.15;;;;;;;14.35;100.00;101530.09;5095671;28;20035;-70
2023/05/11 08:50:32;;;;;;;86.90;53.28;;;;;;;14.40;100.00;101529.66;5095674;28;20396;-70
2023/05/11 08:52:57;;;;;;;81.47;51.83;;;;;;;14.31;100.00;101534.91;5095003;28;20028;-70
2023/05/11 08:55:25;;;;;;;85.18;53.83;;;;;;;14.55;100.00;101533.50;5104027;27;20031;-70
2023/05/11 08:57:52;;;;;;;81.38;51.97;;;;;;;14.63;100.00;101536.28;5093244;28;20040;-70
2023/05/11 09:00:18;;;;;;;80.07;52.10;;;;;;;14.67;100.00;101535.03;5096847;28;20028;-70
2023/05/11 09:02:44;;;;;;;79.78;52.35;;;;;;;14.79;100.00;101542.84;5094297;28;20032;-70
2023/05/11 09:05:10;;;;;;;79.75;50.83;;;;;;;14.76;100.00;101535.91;5094819;28;20032;-70
2023/05/11 09:07:37;;;;;;;84.40;53.83;;;;;;;14.65;100.00;101542.34;5100148;28;20492;-70
2023/05/11 09:10:03;;;;;;;78.35;50.60;;;;;;;14.72;100.00;101543.44;5103180;27;20080;-71
2023/05/11 09:12:28;;;;;;;82.70;52.78;;;;;;;14.83;100.00;101545.06;5099772;28;20114;-70
2023/05/11 09:14:55;;;;;;;78.65;53.17;;;;;;;14.99;100.00;101540.81;5098324;28;20044;-70
2023/05/11 09:17:24;;;;;;;81.80;52.63;;;;;;;14.95;100.00;101545.66;5100680;28;20039;-70
2023/05/11 09:20:06;;;;;;;83.45;54.13;;;;;;;15.13;100.00;101543.81;5099965;28;20039;-69
2023/05/11 09:22:41;;;;;;;82.78;53.17;;;;;;;15.22;100.00;101546.59;5096056;28;20024;-70
2023/05/11 09:25:10;;;;;;;80.95;53.05;;;;;;;15.34;100.00;101542.66;5102854;28;20027;-70
2023/05/11 09:27:40;;;;;;;83.35;53.88;;;;;;;15.54;100.00;101551.34;5100848;28;20008;-70
2023/05/11 09:30:11;;;;;;;82.15;53.97;;;;;;;15.56;100.00;101551.19;5098754;28;20030;-70
2023/05/11 09:33:01;;;;;;;82.78;54.03;;;;;;;15.62;100.00;101546.03;5099190;28;20019;-70
2023/05/11 09:35:32;;;;;;;80.70;52.67;;;;;;;15.55;100.00;101549.50;5089555;28;20028;-70
2023/05/11 09:38:10;;;;;;;82.25;52.15;;;;;;;15.53;100.00;101538.88;5100040;27;20050;-70
2023/05/11 09:40:48;;;;;;;80.60;52.28;;;;;;;15.43;100.00;101548.94;5095185;28;20011;-70
2023/05/11 09:43:18;;;;;;;82.70;52.88;;;;;;;15.36;100.00;101537.94;5098925;28;20027;-70
2023/05/11 09:45:45;;;;;;;82.97;52.75;;;;;;;15.33;100.00;101546.31;5097923;28;20373;-69
2023/05/11 09:48:19;;;;;;;78.45;49.72;;;;;;;15.37;100.00;101545.00;5097731;28;20069;-69
2023/05/11 09:50:46;;;;;;;77.35;49.65;;;;;;;15.22;100.00;101539.34;5097614;28;20071;-70
2023/05/11 09:53:11;;;;;;;72.40;48.97;;;;;;;15.39;100.00;101547.53;5101579;27;20048;-69
2023/05/11 09:55:37;;;;;;;72.10;47.95;;;;;;;15.54;100.00;101540.59;5097632;28;20062;-70
2023/05/11 09:58:03;;;;;;;72.20;47.28;;;;;;;15.43;100.00;101549.75;5095178;28;20059;-70
2023/05/11 10:00:29;;;;;;;75.82;48.88;;;;;;;15.22;100.00;101550.09;5096439;28;20015;-70
2023/05/11 10:03:06;;;;;;;72.10;48.10;;;;;;;15.38;100.00;101552.06;5098304;27;20035;-70
2023/05/11 10:05:35;;;;;;;72.10;48.40;;;;;;;15.42;100.00;101550.75;5097761;28;20051;-70
2023/05/11 10:08:04;;;;;;;76.15;49.83;;;;;;;15.31;100.00;101542.94;5104570;28;20072;-70
2023/05/11 10:10:31;;;;;;;72.32;48.40;;;;;;;15.35;100.00;101546.16;5094586;28;20023;-70
2023/05/11 10:12:59;;;;;;;74.70;48.20;;;;;;;15.40;100.00;101543.84;5096016;28;20474;-70
2023/05/11 10:15:29;;;;;;;73.80;48.83;;;;;;;15.24;100.00;101547.28;5097866;28;20064;-70
2023/05/11 10:17:55;;;;;;;74.45;48.83;;;;;;;15.21;100.00;101551.09;5095648;28;20483;-70
2023/05/11 10:20:21;;;;;;;73.82;47.67;;;;;;;15.27;100.00;101553.19;5098632;27;20032;-70
2023/05/11 10:22:50;;;;;;;72.53;47.28;;;;;;;15.23;100.00;101551.78;5103528;28;20367;-70
2023/05/11 10:25:17;;;;;;;72.05;46.30;;;;;;;15.30;100.00;101549.31;5097197;28;20101;-69
2023/05/11 10:27:43;;;;;;;81.18;49.75;;;;;;;15.27;100.00;101549.63;5095572;28;20024;-69
2023/05/11 10:30:10;;;;;;;74.32;48.75;;;;;;;15.27;100.00;101550.47;5095324;28;20081;-69
2023/05/11 10:32:38;;;;;;;75.22;49.05;;;;;;;15.41;100.00;101543.69;5094163;28;20023;-69
2023/05/11 10:35:05;;;;;;;69.68;46.45;;;;;;;15.54;100.00;101548.66;5094972;27;20096;-70
2023/05/11 10:37:31;;;;;;;71.07;46.40;;;;;;;15.80;100.00;101545.16;5095991;28;20027;-70
2023/05/11 10:39:58;;;;;;;72.13;45.45;;;;;;;15.88;100.00;101543.34;5093215;28;20089;-70
2023/05/11 10:42:48;;;;;;;67.60;45.33;;;;;;;15.94;100.00;101547.25;5097058;28;20460;-70
2023/05/11 10:45:16;;;;;;;69.50;45.30;;;;;;;15.74;100.00;101551.13;5095678;28;20389;-70
2023/05/11 10:48:11;;;;;;;68.97;45.50;;;;;;;15.87;100.00;101547.03;5095122;28;20047;-70
2023/05/11 10:50:42;;;;;;;71.03;46.47;;;;;;;15.93;100.00;101545.53;5095511;28;20535;-70
2023/05/11 10:53:43;;;;;;;69.75;46.53;;;;;;;16.04;100.00;101539.91;5094557;28;20053;-70
2023/05/11 10:56:36;;;;;;;72.53;46.15;;;;;;;16.19;100.00;101542.81;5062974;28;20485;-70
2023/05/11 10:59:36;;;;;;;77.70;47.28;;;;;;;16.29;100.00;101541.84;5094866;28;20105;-70
2023/05/11 11:02:02;;;;;;;78.35;47.78;;;;;;;16.43;100.00;101533.13;5096369;27;20020;-70
2023/05/11 11:04:45;;;;;;;74.03;47.13;;;;;;;16.77;100.00;101532.19;5095171;28;20019;-70
2023/05/11 11:07:15;;;;;;;68.28;45.80;;;;;;;16.86;100.00;101531.22;5094523;28;20638;-70
2023/05/11 11:10:04;;;;;;;72.28;44.58;;;;;;;17.48;100.00;101529.84;5092308;28;20099;-70
2023/05/11 11:12:33;;;;;;;63.00;41.80;;;;;;;17.86;100.00;101522.03;5094160;28;20099;-70
2023/05/11 11:15:00;;;;;;;59.40;40.90;;;;;;;18.02;100.00;101521.13;5096570;28;20431;-70
2023/05/11 11:17:31;;;;;;;67.55;40.10;;;;;;;18.37;100.00;101522.47;5095957;27;20027;-70
2023/05/11 11:20:03;;;;;;;56.13;39.65;;;;;;;18.61;100.00;101524.19;5093112;28;20504;-70
2023/05/11 11:22:34;;;;;;;56.70;38.30;;;;;;;18.46;100.00;101520.56;5095987;28;20034;-70
2023/05/11 11:25:08;;;;;;;53.90;37.78;;;;;;;18.62;100.00;101522.34;5093282;28;20139;-70